Flight Track Log - Related Links

Times and Time Zones

All times are in EDT time to prevent confusion due to time zone crossing. See the TCF3494 flight status page for this flight to view local times or setup timezone preferences in your user account.


Time Position Orientation Groundspeed Altitude Reporting Facility
EDT Latitude Longitude Course Direction KTS MPH feet Rate Location/Type
Sat 02:18:45 PM 41.9167 -87.9000 173° South 156 180 2,700  Level Chicago TRACON
Sat 02:20:00 PM 41.7789 -87.5566 157° South  Level Estimated
Sat 02:20:39 PM 41.8119 -87.8839 173° South 226 260 6,600  Level Chicago Center
Sat 02:21:00 PM 41.7111 -87.4404 156° South  Level Estimated
Sat 02:21:41 PM 41.7411 -87.8497 160° South 269 310 9,500  Level Chicago Center
Sat 02:22:00 PM 41.6092 -87.4963 202° Southwest  Level FlightAware Approximate
Sat 02:22:43 PM 41.6750 -87.7897 146° Southeast 284 327 12,600  Level Chicago Center
Sat 02:23:00 PM 41.5424 -87.3794 169° South  Level Estimated
Sat 02:23:46 PM 41.5989 -87.7461 157° South 301 346 14,200  Level Chicago Center
Sat 02:24:00 PM 41.4754 -87.2628 173° South  Level Estimated
Sat 02:24:47 PM 41.4958 -87.7081 165° South 317 365 16,900  Level Chicago Center
Sat 02:25:48 PM 41.4075 -87.6758 165° South 325 374 19,000 1,854 Climbing Chicago Center
Sat 02:26:50 PM 41.3161 -87.6431 165° South 336 387 20,700 1,742 Climbing Chicago Center
Sat 02:27:52 PM 41.2233 -87.6092 165° South 343 395 22,600 1,548 Climbing Chicago Center
Sat 02:28:54 PM 41.1306 -87.5761 165° South 346 398 23,900 1,306 Climbing Chicago Center
Sat 02:29:56 PM 41.0344 -87.5419 165° South 356 410 25,300 1,355 Climbing Chicago Center
Sat 02:30:58 PM 40.9389 -87.5072 165° South 357 411 26,700 1,403 Climbing Chicago Center
Sat 02:32:00 PM 40.8208 -87.4650 165° South 366 421 28,200 1,268 Climbing Chicago Center
Sat 02:33:01 PM 40.7189 -87.4281 165° South 377 434 29,300 1,220 Climbing Chicago Center
Sat 02:34:03 PM 40.6164 -87.3919 165° South 383 441 30,700 1,306 Climbing Chicago Center
Sat 02:35:05 PM 40.5133 -87.3567 165° South 384 442 32,000 1,306 Climbing Chicago Center
Sat 02:36:07 PM 40.4164 -87.3011 156° South 387 445 33,400 1,306 Climbing Chicago Center
Sat 02:37:09 PM 40.3272 -87.2175 144° Southeast 394 453 34,700 774 Climbing Chicago Center
Sat 02:38:11 PM 40.2214 -87.1183 144° Southeast 392 451 35,000 115 Climbing Chicago Center
Sat 02:39:46 PM 40.0803 -86.9875 145° Southeast 392 451 35,000  Level Indianapolis Center
Sat 02:40:48 PM 39.9903 -86.9053 145° Southeast 391 450 35,000  Level Indianapolis Center
Sat 02:41:49 PM 39.8978 -86.8272 147° Southeast 393 452 35,000  Level Indianapolis Center
Sat 02:42:50 PM 39.8050 -86.7528 148° Southeast 392 451 35,000  Level Indianapolis Center
Sat 02:43:52 PM 39.7150 -86.6736 146° Southeast 390 449 35,000  Level Indianapolis Center
Sat 02:44:53 PM 39.6525 -86.5400 121° Southeast 421 484 35,000  Level Indianapolis Center
Sat 02:45:54 PM 39.5950 -86.4061 119° Southeast 424 488 35,000  Level Indianapolis Center
Sat 02:46:56 PM 39.5364 -86.2728 120° Southeast 423 487 35,000  Level Indianapolis Center
Sat 02:47:57 PM 39.4819 -86.1361 117° Southeast 423 487 35,000  Level Indianapolis Center
Sat 02:48:58 PM 39.4364 -85.9908 112° Southeast 430 495 35,000  Level Indianapolis Center
Sat 02:50:00 PM 39.3894 -85.8447 113° Southeast 435 501 35,000  Level Indianapolis Center
Sat 02:51:01 PM 39.3442 -85.7008 112° Southeast 433 498 35,000  Level Indianapolis Center
Sat 02:52:03 PM 39.2897 -85.5303 112° Southeast 431 496 35,000  Level Indianapolis Center
Sat 02:53:04 PM 39.2431 -85.3861 113° Southeast 432 497 35,000  Level Indianapolis Center
Sat 02:54:05 PM 39.1967 -85.2453 113° Southeast 426 490 35,000  Level Indianapolis Center
Sat 02:55:06 PM 39.1508 -85.1031 113° Southeast 424 488 35,000  Level Indianapolis Center
Sat 02:56:08 PM 39.1039 -84.9622 113° Southeast 425 489 35,000  Level Indianapolis Center
Sat 02:57:09 PM 39.0561 -84.8211 114° Southeast 430 495 35,000  Level Indianapolis Center
Sat 02:58:10 PM 39.0092 -84.6806 113° Southeast 426 490 35,000  Level Indianapolis Center
Sat 02:59:12 PM 38.9622 -84.5397 113° Southeast 426 490 35,000  Level Indianapolis Center
Sat 03:00:13 PM 38.9144 -84.3994 114° Southeast 428 493 35,000  Level Indianapolis Center
Sat 03:01:14 PM 38.8672 -84.2589 113° Southeast 428 493 35,000  Level Indianapolis Center
Sat 03:02:16 PM 38.8203 -84.1197 113° Southeast 424 488 35,000  Level Indianapolis Center
Sat 03:03:17 PM 38.7728 -83.9808 114° Southeast 423 487 35,000  Level Indianapolis Center
Sat 03:04:18 PM 38.7172 -83.8186 114° Southeast 424 488 35,000  Level Indianapolis Center
Sat 03:05:20 PM 38.6700 -83.6794 113° Southeast 425 489 35,000  Level Indianapolis Center
Sat 03:06:21 PM 38.6217 -83.5397 114° Southeast 423 487 35,000  Level Indianapolis Center
Sat 03:07:22 PM 38.5733 -83.4017 114° Southeast 424 488 35,000  Level Indianapolis Center
Sat 03:08:24 PM 38.5258 -83.2631 114° Southeast 424 488 35,000  Level Indianapolis Center
Sat 03:09:25 PM 38.4772 -83.1269 114° Southeast 422 486 35,000  Level Indianapolis Center
Sat 03:10:26 PM 38.4300 -82.9914 114° Southeast 419 482 35,000  Level Indianapolis Center
Sat 03:11:28 PM 38.3822 -82.8586 115° Southeast 414 476 35,000 -49 Level Indianapolis Center
Sat 03:12:29 PM 38.3339 -82.7222 114° Southeast 418 481 34,900 -443 Descending Indianapolis Center
Sat 03:13:30 PM 38.2856 -82.5878 115° Southeast 417 480 34,100 -780 Descending Indianapolis Center
Sat 03:14:32 PM 38.2336 -82.4433 115° Southeast 418 481 33,300 -732 Descending Indianapolis Center
Sat 03:15:33 PM 38.1839 -82.3069 115° Southeast 425 489 32,600 -639 Descending Indianapolis Center
Sat 03:16:34 PM 38.1344 -82.1714 115° Southeast 427 491 32,000 -293 Descending Indianapolis Center
Sat 03:17:36 PM 38.0861 -82.0381 115° Southeast 420 483 32,000  Level Indianapolis Center
Sat 03:18:37 PM 38.0353 -81.9003 115° Southeast 429 494 32,000  Level Indianapolis Center
Sat 03:19:38 PM 37.9744 -81.7356 115° Southeast 432 497 32,000 -341 Level Indianapolis Center
Sat 03:20:40 PM 37.9239 -81.5989 115° Southeast 432 497 31,300 -732 Descending Indianapolis Center
Sat 03:21:41 PM 37.8736 -81.4639 115° Southeast 428 493 30,500 -885 Descending Indianapolis Center
Sat 03:22:42 PM 37.8228 -81.3272 115° Southeast 417 480 29,500 -732 Descending Indianapolis Center
Sat 03:23:44 PM 37.7747 -81.1989 115° Southeast 415 478 29,000 -244 Descending Indianapolis Center
Sat 03:24:45 PM 37.7267 -81.0711 115° Southeast 416 479 29,000  Level Indianapolis Center
Sat 03:25:46 PM 37.6681 -80.9169 116° Southeast 416 479 29,000  Level Indianapolis Center
Sat 03:26:47 PM 37.6194 -80.7878 115° Southeast 419 482 29,000  Level Indianapolis Center
Sat 03:27:48 PM 37.5919 -80.6553 105° East 417 480 29,000 -202 Level Indianapolis Center
Sat 03:28:16 PM 37.5931 -80.5981 89° East 394 453 28,700 -1,295 Descending Washington Center
Sat 03:29:16 PM 37.5992 -80.4542 87° East 401 461 27,100 -1,686 Descending Washington Center
Sat 03:30:17 PM 37.6181 -80.2956 81° East 406 467 25,300 -1,412 Descending Washington Center
Sat 03:31:15 PM 37.6461 -80.1608 75° East 406 467 24,300 -655 Descending Washington Center
Sat 03:32:16 PM 37.5967 -80.0372 117° Southeast 383 441 24,000 -148 Descending Washington Center
Sat 03:33:17 PM 37.5161 -79.9539 141° Southeast 387 445 24,000  Level Washington Center
Sat 03:34:15 PM 37.4089 -79.9192 166° South 370 426 24,000  Level Washington Center
Sat 03:35:15 PM 37.3064 -79.8714 160° South 389 448 24,000 -347 Level Washington Center
Sat 03:36:16 PM 37.2228 -79.7572 133° Southeast 389 448 23,300 -1,041 Descending Washington Center
Sat 03:37:16 PM 37.1450 -79.6567 134° Southeast 395 455 21,900 -1,140 Descending Washington Center
Sat 03:38:17 PM 37.0622 -79.5717 141° Southeast 395 455 21,000 -446 Descending Washington Center
Sat 03:39:17 PM 36.9833 -79.4972 143° Southeast 395 455 21,000  Level Washington Center
Sat 03:40:15 PM 36.8964 -79.4125 142° Southeast 395 455 21,000  Level Washington Center
Sat 03:41:15 PM 36.8072 -79.3275 143° Southeast 401 461 21,000 -843 Level Washington Center
Sat 03:42:16 PM 36.7139 -79.2375 142° Southeast 401 461 19,300 -1,862 Descending Washington Center
Sat 03:43:11 PM 36.6328 -79.1639 144° Southeast 379 436 17,400 -2,044 Descending Washington Center
Sat 03:43:47 PM 36.5861 -79.1150 140° Southeast 370 426 16,200 -1,818 Descending Washington Center
Sat 03:44:17 PM 36.5517 -79.0825 143° Southeast 380 437 15,400 -1,714 Descending Washington Center
Sat 03:44:50 PM 36.5069 -79.0417 144° Southeast 356 410 14,400 -1,966 Descending Washington Center
Sat 03:45:15 PM 36.4725 -79.0067 141° Southeast 370 426 13,500 -1,869 Descending Washington Center
Sat 03:45:51 PM 36.4297 -78.9686 144° Southeast 348 400 12,500 -1,800 Descending Washington Center
Sat 03:46:15 PM 36.3972 -78.9364 141° Southeast 358 412 11,700 -1,700 Descending Washington Center
Sat 03:46:51 PM 36.3586 -78.9011 144° Southeast 320 368 10,800 -1,475 Descending Washington Center
Sat 03:47:16 PM 36.3364 -78.8794 142° Southeast 323 372 10,200 -1,729 Descending Washington Center
Sat 03:47:50 PM 36.2850 -78.8517 156° South 288 331 9,100 -1,770 Descending Washington Center
Sat 03:48:17 PM 36.2519 -78.8372 161° South 294 338 8,400 -1,700 Descending Washington Center
Sat 03:48:50 PM 36.2128 -78.8178 158° South 279 321 7,400 -1,600 Descending Washington Center
Sat 03:49:17 PM 36.1881 -78.8064 160° South 287 330 6,800 -1,770 Descending Washington Center
Sat 03:49:51 PM 36.1364 -78.7836 160° South 274 315 5,600 -1,831 Descending Washington Center
Sat 03:50:16 PM 36.1117 -78.7725 160° South 276 318 5,000 -1,672 Descending Washington Center
Sat 03:50:52 PM 36.0664 -78.7553 163° South 261 300 3,900 -1,500 Descending Washington Center
Sat 03:51:16 PM 36.0436 -78.7414 154° Southeast 271 312 3,500 -984 Descending Washington Center
Sat 03:51:53 PM 36.0025 -78.7244 162° South 241 277 2,900 -885 Descending Washington Center
Sat 03:52:17 PM 35.9839 -78.7133 154° Southeast 254 292 2,600 -750 Descending Washington Center

Login

Don't have an account? Register now (free) for customized features, flight alerts, and more!